createdAt,value
2023-05-22T00:03:50.898Z,72.69
2023-05-22T00:18:52.717Z,74.89
2023-05-22T00:33:54.531Z,72.77
2023-05-22T00:48:56.461Z,72.86
2023-05-22T01:03:59.706Z,71.92
2023-05-22T01:19:39.555Z,72.04
2023-05-22T01:34:45.256Z,71.66
2023-05-22T01:49:47.440Z,71.03
2023-05-22T02:04:53.438Z,71.41
2023-05-22T02:19:55.168Z,72.09
2023-05-22T02:34:58.644Z,72.74
2023-05-22T02:50:00.540Z,73.28
2023-05-22T03:05:02.261Z,74.17
2023-05-22T03:20:05.427Z,73.46
2023-05-22T03:35:07.667Z,73.01
2023-05-22T03:50:09.916Z,71.68
2023-05-22T04:05:11.683Z,72.47
2023-05-22T04:20:13.652Z,69.93
2023-05-22T04:35:18.737Z,68.02
2023-05-22T04:50:21.253Z,66.75
2023-05-22T05:05:23.242Z,59.28
2023-05-22T05:20:25.074Z,54.24
2023-05-22T05:35:26.848Z,50.99
2023-05-22T05:50:28.629Z,48.28
2023-05-22T06:05:30.553Z,44.93
2023-05-22T06:20:32.341Z,45.16
2023-05-22T06:35:34.116Z,47.72
2023-05-22T06:50:36.023Z,47.22
2023-05-22T07:05:37.828Z,43.74
2023-05-22T07:20:39.755Z,44.42
2023-05-22T07:35:41.676Z,46.35
2023-05-22T07:50:45.538Z,46.32
2023-05-22T08:05:47.670Z,45.92
2023-05-22T08:20:49.838Z,45.35
2023-05-22T08:35:51.670Z,42.55
2023-05-22T08:50:59.922Z,41.09
2023-05-22T09:06:02.480Z,38.42
2023-05-22T09:21:11.382Z,37.99
2023-05-22T09:36:20.089Z,37.87
2023-05-22T09:51:27.594Z,40.30
2023-05-22T10:06:31.611Z,45.00
2023-05-22T10:21:37.117Z,47.30
2023-05-22T10:37:16.950Z,48.52
2023-05-22T10:52:22.074Z,66.51
2023-05-22T11:07:23.895Z,65.41
2023-05-22T11:22:43.023Z,64.16
2023-05-22T11:37:45.549Z,63.28
2023-05-22T11:52:48.077Z,64.23
2023-05-22T12:07:50.062Z,62.23
2023-05-22T12:22:51.842Z,63.39
2023-05-22T12:37:53.586Z,62.10
2023-05-22T12:52:55.554Z,61.52
2023-05-22T13:07:57.411Z,62.07
2023-05-22T13:22:59.173Z,62.00
2023-05-22T13:38:01.039Z,58.63
2023-05-22T13:53:02.884Z,53.11
2023-05-22T14:08:04.676Z,49.98
2023-05-22T14:23:06.384Z,47.52
2023-05-22T14:38:08.186Z,47.77
2023-05-22T14:53:09.968Z,50.91
2023-05-22T15:08:11.749Z,52.38
2023-05-22T15:23:13.862Z,58.99
2023-05-22T15:38:16.320Z,62.58
2023-05-22T15:53:18.144Z,69.50
2023-05-22T16:08:19.936Z,70.73
2023-05-22T16:23:21.765Z,67.09
2023-05-22T16:38:23.619Z,66.51
2023-05-22T16:53:25.620Z,68.32
2023-05-22T17:08:28.497Z,68.46
2023-05-22T17:23:30.459Z,66.67
2023-05-22T17:38:32.298Z,69.82
2023-05-22T17:53:35.186Z,72.88
2023-05-22T18:08:40.081Z,72.01
2023-05-22T18:23:41.846Z,73.56
2023-05-22T18:38:43.674Z,75.63
2023-05-22T18:53:46.270Z,78.98
2023-05-22T19:08:48.045Z,81.50
2023-05-22T19:23:49.788Z,78.83
2023-05-22T19:38:53.503Z,77.19
2023-05-22T19:53:55.851Z,72.62
2023-05-22T20:08:57.973Z,72.31
2023-05-22T20:23:59.768Z,78.65
2023-05-22T20:39:01.960Z,77.95
2023-05-22T20:54:04.303Z,81.56
2023-05-22T21:09:06.252Z,79.86
2023-05-22T21:24:11.225Z,79.49
2023-05-22T21:39:13.025Z,80.28
2023-05-22T21:54:14.708Z,80.14
2023-05-22T22:09:16.463Z,80.11
2023-05-22T22:24:18.480Z,80.54
2023-05-22T22:39:20.548Z,80.45
2023-05-22T22:54:22.278Z,79.30
2023-05-22T23:09:24.329Z,79.26
2023-05-22T23:24:26.067Z,79.35
2023-05-22T23:39:27.810Z,78.39
2023-05-22T23:54:29.556Z,77.01
